George Island, Canada
Current Conditions -  °F | °C
As of 9:00 PM on Thursday 27 Nov 2014 (Local Time) from CYNE Reporting Station
Few Clouds Few Clouds  
Wind Chill: -15°   Ceiling: Unl
Heat Index: -4°   Visibility: 9mi
Dew Point: -8°   Wind: 5mph
Humidity: 85%   Direction: 340°NNW
Pressure: 30.18"   Gusts: NA
Location:  52.82°N, 97.6°W
Report Text: CYNE 280300Z AUTO 34004KT 9SM FEW034 M20/M22 A3018 RMK SLP248
Loading
Personal Weather Stations






























Interactive Weather Map New forecast layout! Learn more

10-Day Weather Forecast

Advertisements
Track Severe Weather on mobile